sensor_id;sensor_type;location;lat;lon;timestamp;temperature;humidity
24384;DHT22;12504;52.870;8.798;2023-03-23T00:01:16;10.30;99.90
24384;DHT22;12504;52.870;8.798;2023-03-23T00:03:47;10.30;99.90
24384;DHT22;12504;52.870;8.798;2023-03-23T00:06:13;10.30;99.90
24384;DHT22;12504;52.870;8.798;2023-03-23T00:08:44;10.20;99.90
24384;DHT22;12504;52.870;8.798;2023-03-23T00:11:20;10.20;99.90
24384;DHT22;12504;52.870;8.798;2023-03-23T00:13:48;10.20;99.90
24384;DHT22;12504;52.870;8.798;2023-03-23T00:16:18;10.30;99.90
24384;DHT22;12504;52.870;8.798;2023-03-23T00:18:48;10.30;99.90
24384;DHT22;12504;52.870;8.798;2023-03-23T00:21:18;10.20;99.90
24384;DHT22;12504;52.870;8.798;2023-03-23T00:23:44;10.20;99.90
24384;DHT22;12504;52.870;8.798;2023-03-23T00:26:11;10.20;99.90
24384;DHT22;12504;52.870;8.798;2023-03-23T00:28:37;10.20;99.90
24384;DHT22;12504;52.870;8.798;2023-03-23T00:31:06;10.20;99.90
24384;DHT22;12504;52.870;8.798;2023-03-23T00:33:36;10.20;99.90
24384;DHT22;12504;52.870;8.798;2023-03-23T00:36:08;10.20;99.90
24384;DHT22;12504;52.870;8.798;2023-03-23T00:38:35;10.30;99.90
24384;DHT22;12504;52.870;8.798;2023-03-23T00:41:01;10.20;99.90
24384;DHT22;12504;52.870;8.798;2023-03-23T00:43:28;10.30;99.90
24384;DHT22;12504;52.870;8.798;2023-03-23T00:45:56;10.30;99.90
24384;DHT22;12504;52.870;8.798;2023-03-23T00:48:24;10.30;99.90
24384;DHT22;12504;52.870;8.798;2023-03-23T00:54:05;10.30;99.90
24384;DHT22;12504;52.870;8.798;2023-03-23T00:56:30;10.30;99.90
24384;DHT22;12504;52.870;8.798;2023-03-23T00:58:56;10.30;99.90
24384;DHT22;12504;52.870;8.798;2023-03-23T01:01:22;10.30;99.90
24384;DHT22;12504;52.870;8.798;2023-03-23T01:03:47;10.40;99.90
24384;DHT22;12504;52.870;8.798;2023-03-23T01:06:15;10.30;99.90
24384;DHT22;12504;52.870;8.798;2023-03-23T01:08:42;10.30;99.90
24384;DHT22;12504;52.870;8.798;2023-03-23T01:11:13;10.40;99.90
24384;DHT22;12504;52.870;8.798;2023-03-23T01:13:39;10.40;99.90
24384;DHT22;12504;52.870;8.798;2023-03-23T01:16:06;10.40;99.90
24384;DHT22;12504;52.870;8.798;2023-03-23T01:18:32;10.40;99.90
24384;DHT22;12504;52.870;8.798;2023-03-23T01:20:57;10.40;99.90
24384;DHT22;12504;52.870;8.798;2023-03-23T01:23:23;10.40;99.90
24384;DHT22;12504;52.870;8.798;2023-03-23T01:25:49;10.40;99.90
24384;DHT22;12504;52.870;8.798;2023-03-23T01:28:15;10.40;99.90
24384;DHT22;12504;52.870;8.798;2023-03-23T01:30:41;10.40;99.90
24384;DHT22;12504;52.870;8.798;2023-03-23T01:33:06;10.40;99.90
24384;DHT22;12504;52.870;8.798;2023-03-23T01:35:32;10.40;99.90
24384;DHT22;12504;52.870;8.798;2023-03-23T01:37:58;10.40;99.90
24384;DHT22;12504;52.870;8.798;2023-03-23T01:40:26;10.40;99.90
24384;DHT22;12504;52.870;8.798;2023-03-23T01:42:53;10.40;99.90
24384;DHT22;12504;52.870;8.798;2023-03-23T01:45:31;10.40;99.90
24384;DHT22;12504;52.870;8.798;2023-03-23T01:51:12;10.40;99.90
24384;DHT22;12504;52.870;8.798;2023-03-23T01:53:45;10.40;99.90
24384;DHT22;12504;52.870;8.798;2023-03-23T01:56:14;10.40;99.90
24384;DHT22;12504;52.870;8.798;2023-03-23T01:58:42;10.40;99.90
24384;DHT22;12504;52.870;8.798;2023-03-23T02:01:11;10.40;99.90
24384;DHT22;12504;52.870;8.798;2023-03-23T02:03:41;10.40;99.90
24384;DHT22;12504;52.870;8.798;2023-03-23T02:06:07;10.40;99.90
24384;DHT22;12504;52.870;8.798;2023-03-23T02:08:44;10.40;99.90
24384;DHT22;12504;52.870;8.798;2023-03-23T02:11:16;10.40;99.90
24384;DHT22;12504;52.870;8.798;2023-03-23T02:13:43;10.50;99.90
24384;DHT22;12504;52.870;8.798;2023-03-23T02:16:33;10.40;99.90
24384;DHT22;12504;52.870;8.798;2023-03-23T02:25:04;10.40;99.90
24384;DHT22;12504;52.870;8.798;2023-03-23T02:36:41;10.50;99.90
24384;DHT22;12504;52.870;8.798;2023-03-23T02:39:57;10.50;99.90
24384;DHT22;12504;52.870;8.798;2023-03-23T02:42:09;10.50;99.90
24384;DHT22;12504;52.870;8.798;2023-03-23T02:44:38;10.50;99.90
24384;DHT22;12504;52.870;8.798;2023-03-23T02:47:07;10.50;99.90
24384;DHT22;12504;52.870;8.798;2023-03-23T02:49:36;10.50;99.90
24384;DHT22;12504;52.870;8.798;2023-03-23T02:52:07;10.40;99.90
24384;DHT22;12504;52.870;8.798;2023-03-23T02:54:33;10.50;99.90
24384;DHT22;12504;52.870;8.798;2023-03-23T02:57:00;10.40;99.90
24384;DHT22;12504;52.870;8.798;2023-03-23T02:59:29;10.40;99.90
24384;DHT22;12504;52.870;8.798;2023-03-23T03:04:34;10.40;99.90
24384;DHT22;12504;52.870;8.798;2023-03-23T03:07:23;10.40;99.90
24384;DHT22;12504;52.870;8.798;2023-03-23T03:10:10;10.40;99.90
24384;DHT22;12504;52.870;8.798;2023-03-23T03:13:11;10.40;99.90
24384;DHT22;12504;52.870;8.798;2023-03-23T03:15:55;10.40;99.90
24384;DHT22;12504;52.870;8.798;2023-03-23T03:18:36;10.30;99.90
24384;DHT22;12504;52.870;8.798;2023-03-23T03:21:09;10.40;99.90
24384;DHT22;12504;52.870;8.798;2023-03-23T03:23:40;10.40;99.90
24384;DHT22;12504;52.870;8.798;2023-03-23T03:26:10;10.40;99.90
24384;DHT22;12504;52.870;8.798;2023-03-23T03:28:47;10.40;99.90
24384;DHT22;12504;52.870;8.798;2023-03-23T03:31:21;10.50;99.90
24384;DHT22;12504;52.870;8.798;2023-03-23T03:33:47;10.40;99.90
24384;DHT22;12504;52.870;8.798;2023-03-23T03:36:20;10.40;99.90
24384;DHT22;12504;52.870;8.798;2023-03-23T03:38:50;10.40;99.90
24384;DHT22;12504;52.870;8.798;2023-03-23T03:41:17;10.40;99.90
24384;DHT22;12504;52.870;8.798;2023-03-23T03:43:45;10.50;99.90
24384;DHT22;12504;52.870;8.798;2023-03-23T03:46:11;10.50;99.90
24384;DHT22;12504;52.870;8.798;2023-03-23T03:48:38;10.50;99.90
24384;DHT22;12504;52.870;8.798;2023-03-23T03:51:04;10.50;99.90
24384;DHT22;12504;52.870;8.798;2023-03-23T03:53:33;10.50;99.90
24384;DHT22;12504;52.870;8.798;2023-03-23T03:55:59;10.50;99.90
24384;DHT22;12504;52.870;8.798;2023-03-23T03:58:31;10.50;99.90
24384;DHT22;12504;52.870;8.798;2023-03-23T04:01:07;10.50;99.90
24384;DHT22;12504;52.870;8.798;2023-03-23T04:03:37;10.50;99.90
24384;DHT22;12504;52.870;8.798;2023-03-23T04:06:08;10.50;99.90
24384;DHT22;12504;52.870;8.798;2023-03-23T04:08:35;10.50;99.90
24384;DHT22;12504;52.870;8.798;2023-03-23T04:11:04;10.50;99.90
24384;DHT22;12504;52.870;8.798;2023-03-23T04:13:31;10.50;99.90
24384;DHT22;12504;52.870;8.798;2023-03-23T04:16:14;10.50;99.90
24384;DHT22;12504;52.870;8.798;2023-03-23T04:18:42;10.50;99.90
24384;DHT22;12504;52.870;8.798;2023-03-23T04:21:08;10.60;99.90
24384;DHT22;12504;52.870;8.798;2023-03-23T04:23:37;10.60;99.90
24384;DHT22;12504;52.870;8.798;2023-03-23T04:26:05;10.60;99.90
24384;DHT22;12504;52.870;8.798;2023-03-23T04:28:38;10.70;99.90
24384;DHT22;12504;52.870;8.798;2023-03-23T04:31:23;10.80;99.90
24384;DHT22;12504;52.870;8.798;2023-03-23T04:33:59;10.70;99.90
24384;DHT22;12504;52.870;8.798;2023-03-23T04:36:30;10.70;99.90
24384;DHT22;12504;52.870;8.798;2023-03-23T04:39:04;10.80;99.90
24384;DHT22;12504;52.870;8.798;2023-03-23T04:41:33;10.70;99.90
24384;DHT22;12504;52.870;8.798;2023-03-23T04:44:13;10.80;99.90
24384;DHT22;12504;52.870;8.798;2023-03-23T04:46:45;10.80;99.90
24384;DHT22;12504;52.870;8.798;2023-03-23T04:49:15;10.80;99.90
24384;DHT22;12504;52.870;8.798;2023-03-23T04:51:51;10.80;99.90
24384;DHT22;12504;52.870;8.798;2023-03-23T04:54:34;10.80;99.90
24384;DHT22;12504;52.870;8.798;2023-03-23T04:57:00;10.80;99.90
24384;DHT22;12504;52.870;8.798;2023-03-23T04:59:26;10.90;99.90
24384;DHT22;12504;52.870;8.798;2023-03-23T05:02:10;10.90;99.90
24384;DHT22;12504;52.870;8.798;2023-03-23T05:04:40;10.80;99.90
24384;DHT22;12504;52.870;8.798;2023-03-23T05:07:11;10.80;99.90
24384;DHT22;12504;52.870;8.798;2023-03-23T05:09:47;10.90;99.90
24384;DHT22;12504;52.870;8.798;2023-03-23T05:12:14;10.90;99.90
24384;DHT22;12504;52.870;8.798;2023-03-23T05:14:48;10.90;99.90
24384;DHT22;12504;52.870;8.798;2023-03-23T05:17:19;10.90;99.90
24384;DHT22;12504;52.870;8.798;2023-03-23T05:19:47;10.90;99.90
24384;DHT22;12504;52.870;8.798;2023-03-23T05:22:32;10.90;99.90
24384;DHT22;12504;52.870;8.798;2023-03-23T05:24:59;10.90;99.90
24384;DHT22;12504;52.870;8.798;2023-03-23T05:27:29;10.90;99.90
24384;DHT22;12504;52.870;8.798;2023-03-23T05:29:58;11.00;99.90
24384;DHT22;12504;52.870;8.798;2023-03-23T05:32:28;10.90;99.90
24384;DHT22;12504;52.870;8.798;2023-03-23T05:35:04;10.90;99.90
24384;DHT22;12504;52.870;8.798;2023-03-23T05:37:30;10.90;99.90
24384;DHT22;12504;52.870;8.798;2023-03-23T05:40:07;11.00;99.90
24384;DHT22;12504;52.870;8.798;2023-03-23T05:42:43;10.90;99.90
24384;DHT22;12504;52.870;8.798;2023-03-23T05:45:18;11.00;99.90
24384;DHT22;12504;52.870;8.798;2023-03-23T05:47:45;11.00;99.90
24384;DHT22;12504;52.870;8.798;2023-03-23T05:50:17;11.00;99.90
24384;DHT22;12504;52.870;8.798;2023-03-23T05:52:43;11.00;99.90
24384;DHT22;12504;52.870;8.798;2023-03-23T05:55:12;11.00;99.90
24384;DHT22;12504;52.870;8.798;2023-03-23T05:57:39;11.00;99.90
24384;DHT22;12504;52.870;8.798;2023-03-23T06:00:25;11.10;99.90
24384;DHT22;12504;52.870;8.798;2023-03-23T06:03:01;11.10;99.90
24384;DHT22;12504;52.870;8.798;2023-03-23T06:05:34;11.20;99.90
24384;DHT22;12504;52.870;8.798;2023-03-23T06:07:59;11.20;99.90
24384;DHT22;12504;52.870;8.798;2023-03-23T06:10:26;11.20;99.90
24384;DHT22;12504;52.870;8.798;2023-03-23T06:12:58;11.30;99.90
24384;DHT22;12504;52.870;8.798;2023-03-23T06:15:24;11.30;99.90
24384;DHT22;12504;52.870;8.798;2023-03-23T06:18:08;11.40;99.90
24384;DHT22;12504;52.870;8.798;2023-03-23T06:21:03;11.30;99.90
24384;DHT22;12504;52.870;8.798;2023-03-23T06:23:45;11.20;99.90
24384;DHT22;12504;52.870;8.798;2023-03-23T06:26:14;11.10;99.90
24384;DHT22;12504;52.870;8.798;2023-03-23T06:28:43;11.00;99.90
24384;DHT22;12504;52.870;8.798;2023-03-23T06:31:10;11.00;99.90
24384;DHT22;12504;52.870;8.798;2023-03-23T06:33:37;10.90;99.90
24384;DHT22;12504;52.870;8.798;2023-03-23T06:36:22;10.90;99.90
24384;DHT22;12504;52.870;8.798;2023-03-23T06:39:00;10.90;99.90
24384;DHT22;12504;52.870;8.798;2023-03-23T06:41:42;10.80;99.90
24384;DHT22;12504;52.870;8.798;2023-03-23T06:44:08;10.80;99.90
24384;DHT22;12504;52.870;8.798;2023-03-23T06:46:38;10.80;99.90
24384;DHT22;12504;52.870;8.798;2023-03-23T06:49:21;10.90;99.90
24384;DHT22;12504;52.870;8.798;2023-03-23T06:51:57;10.90;99.90
24384;DHT22;12504;52.870;8.798;2023-03-23T06:54:26;10.90;99.90
24384;DHT22;12504;52.870;8.798;2023-03-23T06:56:51;10.90;99.90
24384;DHT22;12504;52.870;8.798;2023-03-23T06:59:17;10.90;99.90
24384;DHT22;12504;52.870;8.798;2023-03-23T07:01:43;10.90;99.90
24384;DHT22;12504;52.870;8.798;2023-03-23T07:04:10;10.90;99.90
24384;DHT22;12504;52.870;8.798;2023-03-23T07:06:44;10.90;99.90
24384;DHT22;12504;52.870;8.798;2023-03-23T07:09:11;10.80;99.90
24384;DHT22;12504;52.870;8.798;2023-03-23T07:11:37;10.80;99.90
24384;DHT22;12504;52.870;8.798;2023-03-23T07:14:13;10.90;99.90
24384;DHT22;12504;52.870;8.798;2023-03-23T07:16:40;10.90;99.90
24384;DHT22;12504;52.870;8.798;2023-03-23T07:19:06;11.00;99.90
24384;DHT22;12504;52.870;8.798;2023-03-23T07:21:32;11.20;99.90
24384;DHT22;12504;52.870;8.798;2023-03-23T07:23:57;11.50;99.90
24384;DHT22;12504;52.870;8.798;2023-03-23T07:26:41;11.60;99.90
24384;DHT22;12504;52.870;8.798;2023-03-23T07:29:08;11.70;99.90
24384;DHT22;12504;52.870;8.798;2023-03-23T07:31:41;11.90;99.90
24384;DHT22;12504;52.870;8.798;2023-03-23T07:34:07;12.00;99.90
24384;DHT22;12504;52.870;8.798;2023-03-23T07:36:42;12.10;99.90
24384;DHT22;12504;52.870;8.798;2023-03-23T07:39:10;12.40;99.90
24384;DHT22;12504;52.870;8.798;2023-03-23T07:41:38;12.30;99.90
24384;DHT22;12504;52.870;8.798;2023-03-23T07:44:14;11.70;99.90
24384;DHT22;12504;52.870;8.798;2023-03-23T07:46:43;10.90;99.90
24384;DHT22;12504;52.870;8.798;2023-03-23T07:49:14;10.40;99.90
24384;DHT22;12504;52.870;8.798;2023-03-23T07:51:46;10.10;99.90
24384;DHT22;12504;52.870;8.798;2023-03-23T07:54:14;9.90;99.90
24384;DHT22;12504;52.870;8.798;2023-03-23T07:57:03;9.80;99.90
24384;DHT22;12504;52.870;8.798;2023-03-23T07:59:33;9.90;99.90
24384;DHT22;12504;52.870;8.798;2023-03-23T08:01:59;9.70;99.90
24384;DHT22;12504;52.870;8.798;2023-03-23T08:04:44;9.80;99.90
24384;DHT22;12504;52.870;8.798;2023-03-23T08:07:43;9.70;99.90
24384;DHT22;12504;52.870;8.798;2023-03-23T08:10:25;9.80;99.90
24384;DHT22;12504;52.870;8.798;2023-03-23T08:13:03;9.80;99.90
24384;DHT22;12504;52.870;8.798;2023-03-23T08:15:59;9.80;99.90
24384;DHT22;12504;52.870;8.798;2023-03-23T08:18:45;9.80;99.90
24384;DHT22;12504;52.870;8.798;2023-03-23T08:21:22;9.70;99.90
24384;DHT22;12504;52.870;8.798;2023-03-23T08:24:17;9.70;99.90
24384;DHT22;12504;52.870;8.798;2023-03-23T08:27:09;9.70;99.90
24384;DHT22;12504;52.870;8.798;2023-03-23T08:29:57;9.70;99.90
24384;DHT22;12504;52.870;8.798;2023-03-23T08:32:49;9.70;99.90
24384;DHT22;12504;52.870;8.798;2023-03-23T08:35:41;9.60;99.90
24384;DHT22;12504;52.870;8.798;2023-03-23T08:38:22;9.60;99.90
24384;DHT22;12504;52.870;8.798;2023-03-23T08:41:09;9.60;99.90
24384;DHT22;12504;52.870;8.798;2023-03-23T08:43:54;9.60;99.90
24384;DHT22;12504;52.870;8.798;2023-03-23T08:46:41;9.60;99.90
24384;DHT22;12504;52.870;8.798;2023-03-23T08:49:17;9.60;99.90
24384;DHT22;12504;52.870;8.798;2023-03-23T08:52:02;9.60;99.90
24384;DHT22;12504;52.870;8.798;2023-03-23T08:54:35;9.60;99.90
24384;DHT22;12504;52.870;8.798;2023-03-23T08:57:19;9.60;99.90
24384;DHT22;12504;52.870;8.798;2023-03-23T09:00:08;9.50;99.90
24384;DHT22;12504;52.870;8.798;2023-03-23T09:03:21;9.60;99.90
24384;DHT22;12504;52.870;8.798;2023-03-23T09:06:23;9.80;99.90
24384;DHT22;12504;52.870;8.798;2023-03-23T09:08:48;9.80;99.90
24384;DHT22;12504;52.870;8.798;2023-03-23T09:11:15;9.90;99.90
24384;DHT22;12504;52.870;8.798;2023-03-23T09:13:41;10.00;99.90
24384;DHT22;12504;52.870;8.798;2023-03-23T09:16:07;10.00;99.90
24384;DHT22;12504;52.870;8.798;2023-03-23T09:18:34;10.00;99.90
24384;DHT22;12504;52.870;8.798;2023-03-23T09:21:01;10.00;99.90
24384;DHT22;12504;52.870;8.798;2023-03-23T09:23:27;10.00;99.90
24384;DHT22;12504;52.870;8.798;2023-03-23T09:25:53;10.00;99.90
24384;DHT22;12504;52.870;8.798;2023-03-23T09:28:19;9.90;99.90
24384;DHT22;12504;52.870;8.798;2023-03-23T09:30:46;9.90;99.90
24384;DHT22;12504;52.870;8.798;2023-03-23T09:33:14;9.90;99.90
24384;DHT22;12504;52.870;8.798;2023-03-23T09:35:40;9.80;99.90
24384;DHT22;12504;52.870;8.798;2023-03-23T09:38:08;9.80;99.90
24384;DHT22;12504;52.870;8.798;2023-03-23T09:40:48;9.80;99.90
24384;DHT22;12504;52.870;8.798;2023-03-23T09:43:43;9.80;99.90
24384;DHT22;12504;52.870;8.798;2023-03-23T09:46:27;9.80;99.90
24384;DHT22;12504;52.870;8.798;2023-03-23T09:49:01;9.70;99.90
24384;DHT22;12504;52.870;8.798;2023-03-23T09:53:57;9.70;99.90
24384;DHT22;12504;52.870;8.798;2023-03-23T09:56:30;9.70;99.90
24384;DHT22;12504;52.870;8.798;2023-03-23T09:59:20;9.70;99.90
24384;DHT22;12504;52.870;8.798;2023-03-23T10:01:54;9.70;99.90
24384;DHT22;12504;52.870;8.798;2023-03-23T10:04:36;9.80;99.90
24384;DHT22;12504;52.870;8.798;2023-03-23T10:07:16;9.90;99.90
24384;DHT22;12504;52.870;8.798;2023-03-23T10:09:45;10.00;99.90
24384;DHT22;12504;52.870;8.798;2023-03-23T10:17:45;9.90;99.90
24384;DHT22;12504;52.870;8.798;2023-03-23T10:23:04;9.80;99.90
24384;DHT22;12504;52.870;8.798;2023-03-23T10:25:36;9.80;99.90
24384;DHT22;12504;52.870;8.798;2023-03-23T10:29:24;9.80;99.90
24384;DHT22;12504;52.870;8.798;2023-03-23T10:31:32;9.80;99.90
24384;DHT22;12504;52.870;8.798;2023-03-23T10:34:08;9.90;99.90
24384;DHT22;12504;52.870;8.798;2023-03-23T10:36:40;10.00;99.90
24384;DHT22;12504;52.870;8.798;2023-03-23T10:39:11;10.10;99.90
24384;DHT22;12504;52.870;8.798;2023-03-23T10:41:38;10.30;99.90
24384;DHT22;12504;52.870;8.798;2023-03-23T10:44:16;10.50;99.90
24384;DHT22;12504;52.870;8.798;2023-03-23T10:47:03;10.60;99.90
24384;DHT22;12504;52.870;8.798;2023-03-23T10:49:52;10.70;99.90
24384;DHT22;12504;52.870;8.798;2023-03-23T10:52:39;10.80;99.90
24384;DHT22;12504;52.870;8.798;2023-03-23T10:55:15;10.80;99.90
24384;DHT22;12504;52.870;8.798;2023-03-23T10:57:44;10.90;99.90
24384;DHT22;12504;52.870;8.798;2023-03-23T11:02:42;11.00;99.90
24384;DHT22;12504;52.870;8.798;2023-03-23T11:05:20;11.00;99.90
24384;DHT22;12504;52.870;8.798;2023-03-23T11:08:11;11.00;99.90
24384;DHT22;12504;52.870;8.798;2023-03-23T11:10:51;11.10;99.90
24384;DHT22;12504;52.870;8.798;2023-03-23T11:13:19;11.20;99.90
24384;DHT22;12504;52.870;8.798;2023-03-23T11:15:48;11.20;99.90
24384;DHT22;12504;52.870;8.798;2023-03-23T11:18:38;11.20;99.90
24384;DHT22;12504;52.870;8.798;2023-03-23T11:21:06;11.10;99.90
24384;DHT22;12504;52.870;8.798;2023-03-23T11:23:41;11.30;99.90
24384;DHT22;12504;52.870;8.798;2023-03-23T11:26:15;11.30;99.90
24384;DHT22;12504;52.870;8.798;2023-03-23T11:28:45;11.20;99.90
24384;DHT22;12504;52.870;8.798;2023-03-23T11:31:12;11.20;99.90
24384;DHT22;12504;52.870;8.798;2023-03-23T11:33:56;11.20;99.90
24384;DHT22;12504;52.870;8.798;2023-03-23T11:36:40;11.40;99.90
24384;DHT22;12504;52.870;8.798;2023-03-23T11:39:26;11.40;99.90
24384;DHT22;12504;52.870;8.798;2023-03-23T11:41:53;11.40;99.90
24384;DHT22;12504;52.870;8.798;2023-03-23T11:44:23;11.40;99.90
24384;DHT22;12504;52.870;8.798;2023-03-23T11:47:26;11.50;99.90
24384;DHT22;12504;52.870;8.798;2023-03-23T11:50:14;11.50;99.90
24384;DHT22;12504;52.870;8.798;2023-03-23T11:57:50;11.90;99.90
24384;DHT22;12504;52.870;8.798;2023-03-23T12:00:18;11.90;99.90
24384;DHT22;12504;52.870;8.798;2023-03-23T12:05:58;13.40;99.90
24384;DHT22;12504;52.870;8.798;2023-03-23T12:23:01;17.80;99.90
24384;DHT22;12504;52.870;8.798;2023-03-23T12:28:15;15.30;99.90
24384;DHT22;12504;52.870;8.798;2023-03-23T12:30:59;14.50;99.90
24384;DHT22;12504;52.870;8.798;2023-03-23T12:36:19;13.50;99.90
24384;DHT22;12504;52.870;8.798;2023-03-23T12:41:55;13.50;99.90
24384;DHT22;12504;52.870;8.798;2023-03-23T12:44:47;13.50;99.90
24384;DHT22;12504;52.870;8.798;2023-03-23T12:47:44;13.70;99.90
24384;DHT22;12504;52.870;8.798;2023-03-23T12:50:20;14.00;99.90
24384;DHT22;12504;52.870;8.798;2023-03-23T12:53:02;14.40;99.90
24384;DHT22;12504;52.870;8.798;2023-03-23T12:55:47;15.30;99.90
24384;DHT22;12504;52.870;8.798;2023-03-23T12:58:23;15.90;99.90
24384;DHT22;12504;52.870;8.798;2023-03-23T13:01:01;15.90;99.90
24384;DHT22;12504;52.870;8.798;2023-03-23T13:03:45;15.60;99.90
24384;DHT22;12504;52.870;8.798;2023-03-23T13:06:39;15.40;99.90
24384;DHT22;12504;52.870;8.798;2023-03-23T13:11:59;15.00;99.90
24384;DHT22;12504;52.870;8.798;2023-03-23T13:14:50;15.20;99.90
24384;DHT22;12504;52.870;8.798;2023-03-23T13:17:49;15.60;99.90
24384;DHT22;12504;52.870;8.798;2023-03-23T13:20:50;15.50;99.90
24384;DHT22;12504;52.870;8.798;2023-03-23T13:23:40;15.00;99.90
24384;DHT22;12504;52.870;8.798;2023-03-23T13:26:27;15.00;99.90
24384;DHT22;12504;52.870;8.798;2023-03-23T13:28:58;14.80;99.90
24384;DHT22;12504;52.870;8.798;2023-03-23T13:34:10;15.00;99.90
24384;DHT22;12504;52.870;8.798;2023-03-23T13:36:52;15.10;99.90
24384;DHT22;12504;52.870;8.798;2023-03-23T13:39:31;14.80;99.90
24384;DHT22;12504;52.870;8.798;2023-03-23T13:49:58;15.70;99.90
24384;DHT22;12504;52.870;8.798;2023-03-23T13:55:21;16.40;99.90
24384;DHT22;12504;52.870;8.798;2023-03-23T14:02:51;16.80;84.00
24384;DHT22;12504;52.870;8.798;2023-03-23T14:07:54;16.10;99.90
24384;DHT22;12504;52.870;8.798;2023-03-23T14:10:21;16.20;99.90
24384;DHT22;12504;52.870;8.798;2023-03-23T14:12:50;16.50;99.90
24384;DHT22;12504;52.870;8.798;2023-03-23T14:15:17;16.80;91.20
24384;DHT22;12504;52.870;8.798;2023-03-23T14:17:44;17.00;79.20
24384;DHT22;12504;52.870;8.798;2023-03-23T14:20:29;16.90;88.30
24384;DHT22;12504;52.870;8.798;2023-03-23T14:22:57;16.90;59.20
24384;DHT22;12504;52.870;8.798;2023-03-23T14:25:27;16.80;60.70
24384;DHT22;12504;52.870;8.798;2023-03-23T14:27:54;16.90;58.50
24384;DHT22;12504;52.870;8.798;2023-03-23T14:30:22;17.10;62.50
24384;DHT22;12504;52.870;8.798;2023-03-23T14:32:48;17.10;34.10
24384;DHT22;12504;52.870;8.798;2023-03-23T14:35:36;17.00;43.20
24384;DHT22;12504;52.870;8.798;2023-03-23T14:38:04;16.80;48.50
24384;DHT22;12504;52.870;8.798;2023-03-23T14:40:35;16.80;68.80
24384;DHT22;12504;52.870;8.798;2023-03-23T14:43:01;16.90;16.60
24384;DHT22;12504;52.870;8.798;2023-03-23T14:45:28;16.50;17.40
24384;DHT22;12504;52.870;8.798;2023-03-23T14:48:01;16.30;40.60
24384;DHT22;12504;52.870;8.798;2023-03-23T14:50:39;16.30;63.40
24384;DHT22;12504;52.870;8.798;2023-03-23T14:53:21;16.30;28.40
24384;DHT22;12504;52.870;8.798;2023-03-23T14:55:49;16.30;50.70
24384;DHT22;12504;52.870;8.798;2023-03-23T14:58:18;16.60;66.00
24384;DHT22;12504;52.870;8.798;2023-03-23T15:03:27;16.60;16.00
24384;DHT22;12504;52.870;8.798;2023-03-23T15:05:59;16.60;26.90
24384;DHT22;12504;52.870;8.798;2023-03-23T15:08:33;16.70;47.60
24384;DHT22;12504;52.870;8.798;2023-03-23T15:11:34;16.80;58.30
24384;DHT22;12504;52.870;8.798;2023-03-23T15:14:02;16.90;51.60
24384;DHT22;12504;52.870;8.798;2023-03-23T15:16:33;17.00;46.40
24384;DHT22;12504;52.870;8.798;2023-03-23T15:19:04;17.00;49.10
24384;DHT22;12504;52.870;8.798;2023-03-23T15:21:34;17.10;51.40
24384;DHT22;12504;52.870;8.798;2023-03-23T15:24:02;16.80;26.80
24384;DHT22;12504;52.870;8.798;2023-03-23T15:26:34;16.40;48.00
24384;DHT22;12504;52.870;8.798;2023-03-23T15:31:46;15.60;85.50
24384;DHT22;12504;52.870;8.798;2023-03-23T15:37:00;14.90;89.50
24384;DHT22;12504;52.870;8.798;2023-03-23T15:39:27;14.70;99.90
24384;DHT22;12504;52.870;8.798;2023-03-23T15:41:54;14.60;99.90
24384;DHT22;12504;52.870;8.798;2023-03-23T15:47:02;14.00;99.90
24384;DHT22;12504;52.870;8.798;2023-03-23T15:49:28;13.70;99.90
24384;DHT22;12504;52.870;8.798;2023-03-23T15:51:54;13.10;99.90
24384;DHT22;12504;52.870;8.798;2023-03-23T15:54:20;12.80;99.90
24384;DHT22;12504;52.870;8.798;2023-03-23T15:56:46;12.70;99.90
24384;DHT22;12504;52.870;8.798;2023-03-23T15:59:12;12.80;99.90
24384;DHT22;12504;52.870;8.798;2023-03-23T16:01:39;13.00;99.90
24384;DHT22;12504;52.870;8.798;2023-03-23T16:04:14;13.20;99.90
24384;DHT22;12504;52.870;8.798;2023-03-23T16:06:42;13.40;99.90
24384;DHT22;12504;52.870;8.798;2023-03-23T16:09:13;13.70;99.90
24384;DHT22;12504;52.870;8.798;2023-03-23T16:11:40;13.90;99.90
24384;DHT22;12504;52.870;8.798;2023-03-23T16:14:07;14.20;99.90
24384;DHT22;12504;52.870;8.798;2023-03-23T16:16:42;14.40;99.90
24384;DHT22;12504;52.870;8.798;2023-03-23T16:19:11;14.10;99.90
24384;DHT22;12504;52.870;8.798;2023-03-23T16:21:37;13.90;99.90
24384;DHT22;12504;52.870;8.798;2023-03-23T16:24:03;13.80;99.90
24384;DHT22;12504;52.870;8.798;2023-03-23T16:26:28;13.60;99.90
24384;DHT22;12504;52.870;8.798;2023-03-23T16:28:54;13.50;99.90
24384;DHT22;12504;52.870;8.798;2023-03-23T16:31:20;13.30;99.90
24384;DHT22;12504;52.870;8.798;2023-03-23T16:33:46;13.10;99.90
24384;DHT22;12504;52.870;8.798;2023-03-23T16:36:12;13.00;99.90
24384;DHT22;12504;52.870;8.798;2023-03-23T16:38:40;13.00;99.90
24384;DHT22;12504;52.870;8.798;2023-03-23T16:41:06;13.00;99.90
24384;DHT22;12504;52.870;8.798;2023-03-23T16:43:33;13.10;99.90
24384;DHT22;12504;52.870;8.798;2023-03-23T16:45:58;13.20;99.90
24384;DHT22;12504;52.870;8.798;2023-03-23T16:48:24;13.40;99.90
24384;DHT22;12504;52.870;8.798;2023-03-23T16:50:51;13.40;99.90
24384;DHT22;12504;52.870;8.798;2023-03-23T16:53:20;13.40;99.90
24384;DHT22;12504;52.870;8.798;2023-03-23T16:55:46;13.30;99.90
24384;DHT22;12504;52.870;8.798;2023-03-23T16:58:15;13.10;99.90
24384;DHT22;12504;52.870;8.798;2023-03-23T17:00:42;12.90;99.90
24384;DHT22;12504;52.870;8.798;2023-03-23T17:03:08;13.00;99.90
24384;DHT22;12504;52.870;8.798;2023-03-23T17:05:35;12.90;99.90
24384;DHT22;12504;52.870;8.798;2023-03-23T17:08:02;12.80;99.90
24384;DHT22;12504;52.870;8.798;2023-03-23T17:10:29;12.60;99.90
24384;DHT22;12504;52.870;8.798;2023-03-23T17:12:55;12.40;99.90
24384;DHT22;12504;52.870;8.798;2023-03-23T17:15:21;12.30;99.90
24384;DHT22;12504;52.870;8.798;2023-03-23T17:17:50;12.10;99.90
24384;DHT22;12504;52.870;8.798;2023-03-23T17:20:16;11.90;99.90
24384;DHT22;12504;52.870;8.798;2023-03-23T17:22:42;11.80;99.90
24384;DHT22;12504;52.870;8.798;2023-03-23T17:25:09;11.60;99.90
24384;DHT22;12504;52.870;8.798;2023-03-23T17:27:35;11.60;99.90
24384;DHT22;12504;52.870;8.798;2023-03-23T17:30:03;11.50;99.90
24384;DHT22;12504;52.870;8.798;2023-03-23T17:32:28;11.40;99.90
24384;DHT22;12504;52.870;8.798;2023-03-23T17:34:54;11.40;99.90
24384;DHT22;12504;52.870;8.798;2023-03-23T17:37:20;11.40;99.90
24384;DHT22;12504;52.870;8.798;2023-03-23T17:39:46;11.30;99.90
24384;DHT22;12504;52.870;8.798;2023-03-23T17:42:15;11.30;99.90
24384;DHT22;12504;52.870;8.798;2023-03-23T17:44:41;11.30;99.90
24384;DHT22;12504;52.870;8.798;2023-03-23T17:47:06;11.30;99.90
24384;DHT22;12504;52.870;8.798;2023-03-23T17:49:32;11.30;99.90
24384;DHT22;12504;52.870;8.798;2023-03-23T17:51:58;11.20;99.90